sensor_id;sensor_type;location;lat;lon;timestamp;pressure;altitude;pressure_sealevel;temperature;humidity
71043;BME280;58696;52.134;5.500;2023-01-29T00:02:04;103173.72;;;2.69;83.87
71043;BME280;58696;52.134;5.500;2023-01-29T00:04:33;103167.75;;;2.70;83.82
71043;BME280;58696;52.134;5.500;2023-01-29T00:07:03;103165.13;;;2.72;83.92
71043;BME280;58696;52.134;5.500;2023-01-29T00:09:30;103166.84;;;2.71;83.87
71043;BME280;58696;52.134;5.500;2023-01-29T00:12:01;103164.25;;;2.73;84.03
71043;BME280;58696;52.134;5.500;2023-01-29T00:14:27;103147.38;;;2.72;84.02
71043;BME280;58696;52.134;5.500;2023-01-29T00:16:54;103137.22;;;2.72;84.28
71043;BME280;58696;52.134;5.500;2023-01-29T00:19:21;103136.47;;;2.70;83.99
71043;BME280;58696;52.134;5.500;2023-01-29T00:21:47;103135.56;;;2.71;83.99
71043;BME280;58696;52.134;5.500;2023-01-29T00:24:14;103133.03;;;2.71;83.97
71043;BME280;58696;52.134;5.500;2023-01-29T00:26:41;103121.16;;;2.71;84.04
71043;BME280;58696;52.134;5.500;2023-01-29T00:29:08;103122.88;;;2.71;83.93
71043;BME280;58696;52.134;5.500;2023-01-29T00:31:35;103127.06;;;2.72;83.97
71043;BME280;58696;52.134;5.500;2023-01-29T00:34:04;103121.16;;;2.71;83.81
71043;BME280;58696;52.134;5.500;2023-01-29T00:36:31;103124.59;;;2.70;83.90
71043;BME280;58696;52.134;5.500;2023-01-29T00:39:00;103123.84;;;2.68;83.96
71043;BME280;58696;52.134;5.500;2023-01-29T00:41:31;103132.22;;;2.70;84.03
71043;BME280;58696;52.134;5.500;2023-01-29T00:44:17;103128.78;;;2.71;84.16
71043;BME280;58696;52.134;5.500;2023-01-29T00:47:03;103124.59;;;2.70;84.18
71043;BME280;58696;52.134;5.500;2023-01-29T00:49:31;103118.63;;;2.71;84.27
71043;BME280;58696;52.134;5.500;2023-01-29T00:51:58;103119.53;;;2.70;84.16
71043;BME280;58696;52.134;5.500;2023-01-29T00:54:46;103124.50;;;2.72;84.13
71043;BME280;58696;52.134;5.500;2023-01-29T00:57:16;103116.91;;;2.72;84.41
71043;BME280;58696;52.134;5.500;2023-01-29T00:59:42;103118.56;;;2.73;84.25
71043;BME280;58696;52.134;5.500;2023-01-29T01:02:09;103112.66;;;2.72;84.16
71043;BME280;58696;52.134;5.500;2023-01-29T01:04:55;103112.66;;;2.72;84.24
71043;BME280;58696;52.134;5.500;2023-01-29T01:07:25;103110.13;;;2.72;84.15
71043;BME280;58696;52.134;5.500;2023-01-29T01:09:51;103110.94;;;2.73;84.09
71043;BME280;58696;52.134;5.500;2023-01-29T01:12:37;103112.66;;;2.72;84.08
71043;BME280;58696;52.134;5.500;2023-01-29T01:15:04;103105.91;;;2.71;84.02
71043;BME280;58696;52.134;5.500;2023-01-29T01:17:31;103105.09;;;2.71;84.06
71043;BME280;58696;52.134;5.500;2023-01-29T01:19:58;103105.06;;;2.72;84.13
71043;BME280;58696;52.134;5.500;2023-01-29T01:22:27;103094.91;;;2.72;84.23
71043;BME280;58696;52.134;5.500;2023-01-29T01:24:54;103100.94;;;2.70;84.28
71043;BME280;58696;52.134;5.500;2023-01-29T01:27:20;103100.03;;;2.71;84.25
71043;BME280;58696;52.134;5.500;2023-01-29T01:29:48;103103.38;;;2.71;84.33
71043;BME280;58696;52.134;5.500;2023-01-29T01:32:15;103103.47;;;2.70;84.55
71043;BME280;58696;52.134;5.500;2023-01-29T01:34:43;103107.81;;;2.68;84.55
71043;BME280;58696;52.134;5.500;2023-01-29T01:37:10;103105.31;;;2.66;84.44
71043;BME280;58696;52.134;5.500;2023-01-29T01:39:37;103113.78;;;2.67;84.48
71043;BME280;58696;52.134;5.500;2023-01-29T01:42:09;103109.53;;;2.67;84.27
71043;BME280;58696;52.134;5.500;2023-01-29T01:47:51;103117.16;;;2.67;84.34
71043;BME280;58696;52.134;5.500;2023-01-29T01:50:32;103113.78;;;2.67;84.60
71043;BME280;58696;52.134;5.500;2023-01-29T01:53:06;103112.94;;;2.66;84.45
71043;BME280;58696;52.134;5.500;2023-01-29T01:55:39;103115.44;;;2.68;84.53
71043;BME280;58696;52.134;5.500;2023-01-29T01:58:12;103126.31;;;2.70;84.48
71043;BME280;58696;52.134;5.500;2023-01-29T02:00:40;103120.41;;;2.69;84.46
71043;BME280;58696;52.134;5.500;2023-01-29T02:03:09;103117.88;;;2.69;84.47
71043;BME280;58696;52.134;5.500;2023-01-29T02:05:58;103116.16;;;2.70;84.69
71043;BME280;58696;52.134;5.500;2023-01-29T02:08:59;103111.16;;;2.68;84.62
71043;BME280;58696;52.134;5.500;2023-01-29T02:11:46;103112.81;;;2.69;84.68
71043;BME280;58696;52.134;5.500;2023-01-29T02:14:13;103106.09;;;2.68;84.57
71043;BME280;58696;52.134;5.500;2023-01-29T02:16:40;103110.25;;;2.69;84.70
71043;BME280;58696;52.134;5.500;2023-01-29T02:19:15;103098.38;;;2.70;84.59
71043;BME280;58696;52.134;5.500;2023-01-29T02:27:13;103112.72;;;2.71;84.46
71043;BME280;58696;52.134;5.500;2023-01-29T02:32:29;103108.53;;;2.70;84.75
71043;BME280;58696;52.134;5.500;2023-01-29T02:37:56;103114.44;;;2.70;84.55
71043;BME280;58696;52.134;5.500;2023-01-29T02:45:34;103129.69;;;2.70;84.73
71043;BME280;58696;52.134;5.500;2023-01-29T02:48:15;103134.75;;;2.70;84.40
71043;BME280;58696;52.134;5.500;2023-01-29T02:50:56;103130.50;;;2.71;84.50
71043;BME280;58696;52.134;5.500;2023-01-29T02:53:31;103138.94;;;2.71;84.63
71043;BME280;58696;52.134;5.500;2023-01-29T02:56:15;103134.66;;;2.72;84.64
71043;BME280;58696;52.134;5.500;2023-01-29T02:58:47;103138.06;;;2.72;84.76
71043;BME280;58696;52.134;5.500;2023-01-29T03:01:27;103129.59;;;2.72;84.79
71043;BME280;58696;52.134;5.500;2023-01-29T03:04:03;103127.94;;;2.71;84.98
71043;BME280;58696;52.134;5.500;2023-01-29T03:06:39;103135.53;;;2.72;84.91
71043;BME280;58696;52.134;5.500;2023-01-29T03:11:41;103124.47;;;2.73;84.95
71043;BME280;58696;52.134;5.500;2023-01-29T03:14:15;103119.22;;;2.76;85.06
71043;BME280;58696;52.134;5.500;2023-01-29T03:16:50;103120.88;;;2.77;85.09
71043;BME280;58696;52.134;5.500;2023-01-29T03:19:30;103108.25;;;2.76;85.15
71043;BME280;58696;52.134;5.500;2023-01-29T03:22:01;103108.31;;;2.74;85.05
71043;BME280;58696;52.134;5.500;2023-01-29T03:27:23;103102.44;;;2.74;85.16
71043;BME280;58696;52.134;5.500;2023-01-29T03:30:13;103094.00;;;2.73;85.10
71043;BME280;58696;52.134;5.500;2023-01-29T03:33:05;103090.69;;;2.71;84.83
71043;BME280;58696;52.134;5.500;2023-01-29T03:35:39;103080.53;;;2.71;84.94
71043;BME280;58696;52.134;5.500;2023-01-29T03:38:10;103081.59;;;2.67;85.00
71043;BME280;58696;52.134;5.500;2023-01-29T03:40:57;103070.63;;;2.67;85.04
71043;BME280;58696;52.134;5.500;2023-01-29T03:46:48;103064.88;;;2.63;85.04
71043;BME280;58696;52.134;5.500;2023-01-29T03:49:16;103065.69;;;2.63;85.14
71043;BME280;58696;52.134;5.500;2023-01-29T03:52:39;103063.06;;;2.65;85.34
71043;BME280;58696;52.134;5.500;2023-01-29T03:57:43;103063.44;;;2.57;85.09
71043;BME280;58696;52.134;5.500;2023-01-29T04:00:18;103056.78;;;2.55;85.14
71043;BME280;58696;52.134;5.500;2023-01-29T04:05:32;103053.53;;;2.53;85.11
71043;BME280;58696;52.134;5.500;2023-01-29T04:08:10;103047.75;;;2.49;85.25
71043;BME280;58696;52.134;5.500;2023-01-29T04:10:40;103055.38;;;2.49;85.12
71043;BME280;58696;52.134;5.500;2023-01-29T04:13:11;103042.69;;;2.49;85.22
71043;BME280;58696;52.134;5.500;2023-01-29T04:15:48;103039.34;;;2.49;85.35
71043;BME280;58696;52.134;5.500;2023-01-29T04:18:16;103033.53;;;2.47;85.36
71043;BME280;58696;52.134;5.500;2023-01-29T04:20:43;103029.34;;;2.46;85.66
71043;BME280;58696;52.134;5.500;2023-01-29T04:23:21;103033.66;;;2.44;85.73
71043;BME280;58696;52.134;5.500;2023-01-29T04:26:07;103043.88;;;2.42;85.80
71043;BME280;58696;52.134;5.500;2023-01-29T04:34:28;103035.69;;;2.37;85.64
71043;BME280;58696;52.134;5.500;2023-01-29T04:52:58;103023.97;;;2.34;85.56
71043;BME280;58696;52.134;5.500;2023-01-29T04:55:45;103022.38;;;2.32;85.57
71043;BME280;58696;52.134;5.500;2023-01-29T05:00:48;103012.25;;;2.32;85.29
71043;BME280;58696;52.134;5.500;2023-01-29T05:03:22;103006.44;;;2.30;85.38
71043;BME280;58696;52.134;5.500;2023-01-29T05:05:50;103002.25;;;2.29;85.17
71043;BME280;58696;52.134;5.500;2023-01-29T05:08:24;103009.06;;;2.28;85.42
71043;BME280;58696;52.134;5.500;2023-01-29T05:10:54;102999.78;;;2.27;85.46
71043;BME280;58696;52.134;5.500;2023-01-29T05:13:28;103005.66;;;2.28;85.29
71043;BME280;58696;52.134;5.500;2023-01-29T05:18:34;103000.69;;;2.26;84.99
71043;BME280;58696;52.134;5.500;2023-01-29T05:21:07;103000.75;;;2.25;85.09
71043;BME280;58696;52.134;5.500;2023-01-29T05:23:34;103009.28;;;2.24;84.95
71043;BME280;58696;52.134;5.500;2023-01-29T05:26:04;103008.50;;;2.22;85.02
71043;BME280;58696;52.134;5.500;2023-01-29T05:28:31;103013.56;;;2.22;84.95
71043;BME280;58696;52.134;5.500;2023-01-29T05:31:00;103019.47;;;2.22;84.85
71043;BME280;58696;52.134;5.500;2023-01-29T05:33:29;103028.75;;;2.23;85.02
71043;BME280;58696;52.134;5.500;2023-01-29T05:36:00;103017.75;;;2.23;84.85
71043;BME280;58696;52.134;5.500;2023-01-29T05:38:26;103018.50;;;2.25;84.91
71043;BME280;58696;52.134;5.500;2023-01-29T05:40:53;103023.66;;;2.23;84.80
71043;BME280;58696;52.134;5.500;2023-01-29T05:43:22;103015.22;;;2.23;84.82
71043;BME280;58696;52.134;5.500;2023-01-29T05:45:56;103016.88;;;2.24;84.80
71043;BME280;58696;52.134;5.500;2023-01-29T05:48:25;103018.44;;;2.26;84.86
71043;BME280;58696;52.134;5.500;2023-01-29T05:50:53;103027.03;;;2.24;84.97
71043;BME280;58696;52.134;5.500;2023-01-29T05:53:28;103026.22;;;2.23;84.80
71043;BME280;58696;52.134;5.500;2023-01-29T05:55:54;103015.16;;;2.24;84.84
71043;BME280;58696;52.134;5.500;2023-01-29T05:58:22;103000.75;;;2.25;85.29
71043;BME280;58696;52.134;5.500;2023-01-29T06:00:49;102991.44;;;2.25;84.87
71043;BME280;58696;52.134;5.500;2023-01-29T06:03:16;102991.44;;;2.25;84.81
71043;BME280;58696;52.134;5.500;2023-01-29T06:05:43;102994.06;;;2.24;84.65
71043;BME280;58696;52.134;5.500;2023-01-29T06:08:15;102990.69;;;2.23;84.40
71043;BME280;58696;52.134;5.500;2023-01-29T06:10:42;102982.19;;;2.24;84.45
71043;BME280;58696;52.134;5.500;2023-01-29T06:13:09;102982.19;;;2.24;84.42
71043;BME280;58696;52.134;5.500;2023-01-29T06:15:38;102986.44;;;2.24;84.39
71043;BME280;58696;52.134;5.500;2023-01-29T06:18:08;102976.28;;;2.24;84.34
71043;BME280;58696;52.134;5.500;2023-01-29T06:20:35;102978.75;;;2.25;84.21
71043;BME280;58696;52.134;5.500;2023-01-29T06:23:03;102979.56;;;2.26;84.40
71043;BME280;58696;52.134;5.500;2023-01-29T06:25:30;102977.03;;;2.26;84.31
71043;BME280;58696;52.134;5.500;2023-01-29T06:28:00;102971.06;;;2.27;84.20
71043;BME280;58696;52.134;5.500;2023-01-29T06:30:28;102963.44;;;2.27;84.21
71043;BME280;58696;52.134;5.500;2023-01-29T06:32:57;102971.06;;;2.27;84.18
71043;BME280;58696;52.134;5.500;2023-01-29T06:35:24;102964.25;;;2.27;84.17
71043;BME280;58696;52.134;5.500;2023-01-29T06:37:51;102970.22;;;2.26;83.90
71043;BME280;58696;52.134;5.500;2023-01-29T06:40:18;102952.47;;;2.26;83.82
71043;BME280;58696;52.134;5.500;2023-01-29T06:42:47;102955.81;;;2.27;83.78
71043;BME280;58696;52.134;5.500;2023-01-29T06:45:14;102968.59;;;2.25;83.91
71043;BME280;58696;52.134;5.500;2023-01-29T06:47:41;102973.59;;;2.27;83.58
71043;BME280;58696;52.134;5.500;2023-01-29T06:50:08;102970.16;;;2.28;83.68
71043;BME280;58696;52.134;5.500;2023-01-29T06:52:34;102972.63;;;2.29;83.57
71043;BME280;58696;52.134;5.500;2023-01-29T06:55:01;102966.66;;;2.30;83.25
71043;BME280;58696;52.134;5.500;2023-01-29T06:57:28;102962.41;;;2.31;83.60
71043;BME280;58696;52.134;5.500;2023-01-29T06:59:57;102960.69;;;2.31;83.53
71043;BME280;58696;52.134;5.500;2023-01-29T07:02:25;102963.94;;;2.33;83.53
71043;BME280;58696;52.134;5.500;2023-01-29T07:04:52;102964.84;;;2.32;83.62
71043;BME280;58696;52.134;5.500;2023-01-29T07:07:18;102955.47;;;2.34;83.30
71043;BME280;58696;52.134;5.500;2023-01-29T07:09:45;102959.72;;;2.34;83.30
71043;BME280;58696;52.134;5.500;2023-01-29T07:12:12;102962.25;;;2.34;83.27
71043;BME280;58696;52.134;5.500;2023-01-29T07:14:38;102952.13;;;2.34;83.11
71043;BME280;58696;52.134;5.500;2023-01-29T07:17:07;102952.03;;;2.35;83.14
71043;BME280;58696;52.134;5.500;2023-01-29T07:19:34;102964.72;;;2.35;83.11
71043;BME280;58696;52.134;5.500;2023-01-29T07:22:00;102958.75;;;2.36;83.06
71043;BME280;58696;52.134;5.500;2023-01-29T07:24:28;102962.19;;;2.35;82.83
71043;BME280;58696;52.134;5.500;2023-01-29T07:26:56;102963.81;;;2.36;82.92
71043;BME280;58696;52.134;5.500;2023-01-29T07:29:22;102962.19;;;2.35;82.97
71043;BME280;58696;52.134;5.500;2023-01-29T07:31:52;102959.63;;;2.35;82.93
71043;BME280;58696;52.134;5.500;2023-01-29T07:34:19;102956.94;;;2.38;82.85
71043;BME280;58696;52.134;5.500;2023-01-29T07:36:45;102967.09;;;2.38;82.76
71043;BME280;58696;52.134;5.500;2023-01-29T07:39:12;102959.47;;;2.38;82.70
71043;BME280;58696;52.134;5.500;2023-01-29T07:41:39;102957.69;;;2.41;82.68
71043;BME280;58696;52.134;5.500;2023-01-29T07:44:06;102958.50;;;2.41;82.74
71043;BME280;58696;52.134;5.500;2023-01-29T07:46:32;102948.28;;;2.43;82.87
71043;BME280;58696;52.134;5.500;2023-01-29T07:49:01;102941.50;;;2.43;82.67
71043;BME280;58696;52.134;5.500;2023-01-29T07:51:30;102932.16;;;2.44;82.64
71043;BME280;58696;52.134;5.500;2023-01-29T07:53:57;102935.44;;;2.46;82.61
71043;BME280;58696;52.134;5.500;2023-01-29T07:56:23;102927.84;;;2.46;82.65
71043;BME280;58696;52.134;5.500;2023-01-29T07:58:50;102922.69;;;2.47;82.59
71043;BME280;58696;52.134;5.500;2023-01-29T08:01:18;102923.50;;;2.48;82.89
71043;BME280;58696;52.134;5.500;2023-01-29T08:03:44;102922.69;;;2.47;82.44
71043;BME280;58696;52.134;5.500;2023-01-29T08:06:11;102922.69;;;2.47;82.37
71043;BME280;58696;52.134;5.500;2023-01-29T08:08:41;102927.66;;;2.49;82.46
71043;BME280;58696;52.134;5.500;2023-01-29T08:11:09;102925.13;;;2.49;82.36
71043;BME280;58696;52.134;5.500;2023-01-29T08:13:37;102921.69;;;2.50;82.31
71043;BME280;58696;52.134;5.500;2023-01-29T08:16:05;102915.75;;;2.51;82.05
71043;BME280;58696;52.134;5.500;2023-01-29T08:18:31;102920.66;;;2.54;82.10
71043;BME280;58696;52.134;5.500;2023-01-29T08:21:00;102919.75;;;2.55;81.96
71043;BME280;58696;52.134;5.500;2023-01-29T08:23:26;102915.47;;;2.55;81.92
71043;BME280;58696;52.134;5.500;2023-01-29T08:25:53;102917.88;;;2.58;81.97
71043;BME280;58696;52.134;5.500;2023-01-29T08:28:22;102909.34;;;2.59;82.00
71043;BME280;58696;52.134;5.500;2023-01-29T08:30:49;102919.50;;;2.59;81.89
71043;BME280;58696;52.134;5.500;2023-01-29T08:33:15;102911.84;;;2.61;81.86
71043;BME280;58696;52.134;5.500;2023-01-29T08:35:54;102903.31;;;2.62;81.87
71043;BME280;58696;52.134;5.500;2023-01-29T08:38:21;102901.50;;;2.64;81.90
71043;BME280;58696;52.134;5.500;2023-01-29T08:40:48;102901.38;;;2.67;82.02
71043;BME280;58696;52.134;5.500;2023-01-29T08:43:15;102897.03;;;2.69;81.71
71043;BME280;58696;52.134;5.500;2023-01-29T08:45:42;102880.88;;;2.70;81.89
71043;BME280;58696;52.134;5.500;2023-01-29T08:48:09;102891.78;;;2.72;81.78
71043;BME280;58696;52.134;5.500;2023-01-29T08:50:37;102885.81;;;2.73;81.80
71043;BME280;58696;52.134;5.500;2023-01-29T08:53:06;102881.56;;;2.74;81.60
71043;BME280;58696;52.134;5.500;2023-01-29T08:55:40;102889.00;;;2.77;81.60
71043;BME280;58696;52.134;5.500;2023-01-29T08:58:09;102886.41;;;2.78;81.50
71043;BME280;58696;52.134;5.500;2023-01-29T09:00:39;102888.84;;;2.80;81.49
71043;BME280;58696;52.134;5.500;2023-01-29T09:03:06;102883.69;;;2.81;81.39
71043;BME280;58696;52.134;5.500;2023-01-29T09:05:35;102886.06;;;2.84;81.44
71043;BME280;58696;52.134;5.500;2023-01-29T09:08:03;102883.53;;;2.84;81.36
71043;BME280;58696;52.134;5.500;2023-01-29T09:10:30;102882.53;;;2.87;81.42
71043;BME280;58696;52.134;5.500;2023-01-29T09:12:57;102885.88;;;2.87;81.12
71043;BME280;58696;52.134;5.500;2023-01-29T09:15:24;102881.56;;;2.89;81.08
71043;BME280;58696;52.134;5.500;2023-01-29T09:17:51;102881.47;;;2.91;81.20
71043;BME280;58696;52.134;5.500;2023-01-29T09:20:18;102884.75;;;2.93;81.12
71043;BME280;58696;52.134;5.500;2023-01-29T09:22:46;102879.59;;;2.95;81.10
71043;BME280;58696;52.134;5.500;2023-01-29T09:25:13;102888.84;;;2.96;80.97
71043;BME280;58696;52.134;5.500;2023-01-29T09:27:40;102891.16;;;3.00;80.92
71043;BME280;58696;52.134;5.500;2023-01-29T09:30:09;102891.16;;;3.00;80.80
71043;BME280;58696;52.134;5.500;2023-01-29T09:32:36;102884.34;;;3.01;80.79
71043;BME280;58696;52.134;5.500;2023-01-29T09:35:20;102884.13;;;3.05;80.65
71043;BME280;58696;52.134;5.500;2023-01-29T09:37:50;102889.81;;;3.09;80.80
71043;BME280;58696;52.134;5.500;2023-01-29T09:40:24;102890.59;;;3.11;80.55
71043;BME280;58696;52.134;5.500;2023-01-29T09:43:19;102887.84;;;3.14;80.50
71043;BME280;58696;52.134;5.500;2023-01-29T09:45:53;102881.00;;;3.16;80.30
71043;BME280;58696;52.134;5.500;2023-01-29T09:48:26;102884.97;;;3.20;80.24
71043;BME280;58696;52.134;5.500;2023-01-29T09:50:57;102878.13;;;3.22;80.10
71043;BME280;58696;52.134;5.500;2023-01-29T09:53:39;102883.00;;;3.25;79.98
71043;BME280;58696;52.134;5.500;2023-01-29T09:56:22;102881.94;;;3.29;80.06
71043;BME280;58696;52.134;5.500;2023-01-29T09:58:57;102880.06;;;3.33;80.10
71043;BME280;58696;52.134;5.500;2023-01-29T10:01:49;102881.63;;;3.35;79.94
71043;BME280;58696;52.134;5.500;2023-01-29T10:04:48;102888.19;;;3.39;79.69
71043;BME280;58696;52.134;5.500;2023-01-29T10:12:52;102878.22;;;3.51;79.53
71043;BME280;58696;52.134;5.500;2023-01-29T10:15:52;102877.31;;;3.52;79.65
71043;BME280;58696;52.134;5.500;2023-01-29T10:24:21;102873.97;;;3.51;79.33
71043;BME280;58696;52.134;5.500;2023-01-29T10:26:51;102866.34;;;3.51;79.43
71043;BME280;58696;52.134;5.500;2023-01-29T10:29:19;102863.06;;;3.49;79.54
71043;BME280;58696;52.134;5.500;2023-01-29T10:31:52;102863.13;;;3.48;79.70
71043;BME280;58696;52.134;5.500;2023-01-29T10:37:15;102846.50;;;3.42;79.61
71043;BME280;58696;52.134;5.500;2023-01-29T10:39:44;102846.44;;;3.43;79.62
71043;BME280;58696;52.134;5.500;2023-01-29T10:42:30;102842.91;;;3.46;79.55
71043;BME280;58696;52.134;5.500;2023-01-29T10:45:33;102834.19;;;3.50;79.25
71043;BME280;58696;52.134;5.500;2023-01-29T10:53:56;102823.34;;;3.62;79.29
71043;BME280;58696;52.134;5.500;2023-01-29T10:59:46;102814.72;;;3.65;79.38
71043;BME280;58696;52.134;5.500;2023-01-29T11:02:18;102813.81;;;3.66;78.76
71043;BME280;58696;52.134;5.500;2023-01-29T11:04:47;102807.00;;;3.66;79.11
71043;BME280;58696;52.134;5.500;2023-01-29T11:07:18;102802.72;;;3.67;78.87
71043;BME280;58696;52.134;5.500;2023-01-29T11:10:02;102800.28;;;3.65;79.12
71043;BME280;58696;52.134;5.500;2023-01-29T11:12:30;102796.13;;;3.64;79.26
71043;BME280;58696;52.134;5.500;2023-01-29T11:15:03;102789.38;;;3.63;78.94
71043;BME280;58696;52.134;5.500;2023-01-29T11:17:31;102791.91;;;3.63;79.25
71043;BME280;58696;52.134;5.500;2023-01-29T11:19:58;102792.66;;;3.65;78.93
71043;BME280;58696;52.134;5.500;2023-01-29T11:22:26;102791.66;;;3.68;79.12
71043;BME280;58696;52.134;5.500;2023-01-29T11:27:42;102780.41;;;3.72;79.34
71043;BME280;58696;52.134;5.500;2023-01-29T11:30:19;102787.13;;;3.73;79.08
71043;BME280;58696;52.134;5.500;2023-01-29T11:35:25;102778.50;;;3.76;79.18
71043;BME280;58696;52.134;5.500;2023-01-29T11:38:05;102769.97;;;3.77;79.24
71043;BME280;58696;52.134;5.500;2023-01-29T11:40:39;102768.34;;;3.76;79.41
71043;BME280;58696;52.134;5.500;2023-01-29T11:45:48;102763.06;;;3.79;79.43
71043;BME280;58696;52.134;5.500;2023-01-29T11:48:18;102762.25;;;3.78;79.39
71043;BME280;58696;52.134;5.500;2023-01-29T11:51:19;102757.97;;;3.79;79.46
71043;BME280;58696;52.134;5.500;2023-01-29T11:53:56;102757.16;;;3.78;79.35
71043;BME280;58696;52.134;5.500;2023-01-29T11:56:37;102751.09;;;3.81;79.11
71043;BME280;58696;52.134;5.500;2023-01-29T12:01:46;102745.91;;;3.82;79.46
71043;BME280;58696;52.134;5.500;2023-01-29T12:04:22;102742.53;;;3.82;79.47
71043;BME280;58696;52.134;5.500;2023-01-29T12:06:53;102732.28;;;3.83;79.62
71043;BME280;58696;52.134;5.500;2023-01-29T12:09:24;102731.56;;;3.81;79.77
71043;BME280;58696;52.134;5.500;2023-01-29T12:11:53;102729.91;;;3.80;79.83
71043;BME280;58696;52.134;5.500;2023-01-29T12:14:31;102724.81;;;3.80;80.07
71043;BME280;58696;52.134;5.500;2023-01-29T12:17:18;102715.50;;;3.81;80.02
71043;BME280;58696;52.134;5.500;2023-01-29T12:20:04;102709.38;;;3.83;80.50
71043;BME280;58696;52.134;5.500;2023-01-29T12:22:44;102701.75;;;3.83;80.47
71043;BME280;58696;52.134;5.500;2023-01-29T12:25:33;102695.97;;;3.81;80.60
71043;BME280;58696;52.134;5.500;2023-01-29T12:31:16;102687.50;;;3.81;80.73
71043;BME280;58696;52.134;5.500;2023-01-29T12:34:03;102683.31;;;3.80;81.03
71043;BME280;58696;52.134;5.500;2023-01-29T12:36:37;102679.13;;;3.79;80.73
71043;BME280;58696;52.134;5.500;2023-01-29T12:39:10;102670.69;;;3.78;80.92
71043;BME280;58696;52.134;5.500;2023-01-29T12:41:58;102672.31;;;3.79;80.92
71043;BME280;58696;52.134;5.500;2023-01-29T12:47:01;102648.53;;;3.80;81.10
71043;BME280;58696;52.134;5.500;2023-01-29T12:49:34;102645.91;;;3.82;81.15
71043;BME280;58696;52.134;5.500;2023-01-29T12:52:11;102642.44;;;3.83;81.02
71043;BME280;58696;52.134;5.500;2023-01-29T12:57:47;102637.16;;;3.86;81.16
71043;BME280;58696;52.134;5.500;2023-01-29T13:00:24;102619.34;;;3.86;81.09
71043;BME280;58696;52.134;5.500;2023-01-29T13:03:12;102607.50;;;3.86;81.05
71043;BME280;58696;52.134;5.500;2023-01-29T13:05:53;102598.13;;;3.87;80.79
71043;BME280;58696;52.134;5.500;2023-01-29T13:11:16;102588.75;;;3.87;80.93
71043;BME280;58696;52.134;5.500;2023-01-29T13:13:50;102581.84;;;3.89;80.86
71043;BME280;58696;52.134;5.500;2023-01-29T13:16:22;102575.13;;;3.88;80.70
71043;BME280;58696;52.134;5.500;2023-01-29T13:22:00;102559.88;;;3.88;80.84
71043;BME280;58696;52.134;5.500;2023-01-29T13:24:36;102540.44;;;3.87;80.74
71043;BME280;58696;52.134;5.500;2023-01-29T13:27:05;102541.97;;;3.90;80.93
71043;BME280;58696;52.134;5.500;2023-01-29T13:29:32;102534.25;;;3.91;81.04
71043;BME280;58696;52.134;5.500;2023-01-29T13:32:02;102528.84;;;3.96;81.17
71043;BME280;58696;52.134;5.500;2023-01-29T13:34:49;102519.94;;;4.03;81.07
71043;BME280;58696;52.134;5.500;2023-01-29T13:37:33;102520.25;;;4.11;81.35
71043;BME280;58696;52.134;5.500;2023-01-29T13:40:03;102520.69;;;4.18;81.04
71043;BME280;58696;52.134;5.500;2023-01-29T13:42:41;102523.97;;;4.20;80.89
71043;BME280;58696;52.134;5.500;2023-01-29T13:45:43;102511.94;;;4.22;81.02
71043;BME280;58696;52.134;5.500;2023-01-29T13:48:26;102513.50;;;4.25;81.04
71043;BME280;58696;52.134;5.500;2023-01-29T13:50:55;102515.22;;;4.24;80.93
71043;BME280;58696;52.134;5.500;2023-01-29T13:53:34;102515.09;;;4.26;80.98
71043;BME280;58696;52.134;5.500;2023-01-29T13:56:40;102516.72;;;4.27;81.02
71043;BME280;58696;52.134;5.500;2023-01-29T13:59:21;102515.22;;;4.24;80.73
71043;BME280;58696;52.134;5.500;2023-01-29T14:04:22;102513.50;;;4.25;81.02
71043;BME280;58696;52.134;5.500;2023-01-29T14:06:55;102509.22;;;4.25;80.98
71043;BME280;58696;52.134;5.500;2023-01-29T14:17:18;102504.94;;;4.26;81.02
71043;BME280;58696;52.134;5.500;2023-01-29T14:19:49;102495.69;;;4.25;81.24
71043;BME280;58696;52.134;5.500;2023-01-29T14:22:19;102487.22;;;4.24;80.90
71043;BME280;58696;52.134;5.500;2023-01-29T14:24:49;102493.94;;;4.25;80.99
71043;BME280;58696;52.134;5.500;2023-01-29T14:27:22;102489.66;;;4.26;81.06
71043;BME280;58696;52.134;5.500;2023-01-29T14:29:58;102478.69;;;4.25;80.92
71043;BME280;58696;52.134;5.500;2023-01-29T14:32:26;102490.59;;;4.25;81.15
71043;BME280;58696;52.134;5.500;2023-01-29T14:35:02;102490.66;;;4.23;81.24
71043;BME280;58696;52.134;5.500;2023-01-29T14:37:39;102488.94;;;4.23;81.21
71043;BME280;58696;52.134;5.500;2023-01-29T14:45:37;102468.28;;;4.28;81.18
71043;BME280;58696;52.134;5.500;2023-01-29T14:48:35;102468.28;;;4.28;81.39
71043;BME280;58696;52.134;5.500;2023-01-29T14:51:15;102464.91;;;4.28;81.42
71043;BME280;58696;52.134;5.500;2023-01-29T14:54:01;102464.00;;;4.29;81.60
71043;BME280;58696;52.134;5.500;2023-01-29T14:56:36;102462.06;;;4.32;81.59
71043;BME280;58696;52.134;5.500;2023-01-29T14:59:18;102459.53;;;4.32;81.54
71043;BME280;58696;52.134;5.500;2023-01-29T15:01:55;102453.63;;;4.32;81.65
71043;BME280;58696;52.134;5.500;2023-01-29T15:04:37;102459.53;;;4.32;81.74
71043;BME280;58696;52.134;5.500;2023-01-29T15:09:44;102450.28;;;4.31;81.84
71043;BME280;58696;52.134;5.500;2023-01-29T15:12:26;102443.56;;;4.30;81.97
71043;BME280;58696;52.134;5.500;2023-01-29T15:22:56;102427.06;;;4.36;81.70
71043;BME280;58696;52.134;5.500;2023-01-29T15:25:23;102423.72;;;4.35;81.86
71043;BME280;58696;52.134;5.500;2023-01-29T15:27:51;102418.50;;;4.37;81.93
71043;BME280;58696;52.134;5.500;2023-01-29T15:30:25;102432.16;;;4.36;82.08
71043;BME280;58696;52.134;5.500;2023-01-29T15:32:55;102426.25;;;4.35;81.96
71043;BME280;58696;52.134;5.500;2023-01-29T15:35:26;102425.34;;;4.36;81.76
71043;BME280;58696;52.134;5.500;2023-01-29T15:38:15;102419.44;;;4.36;81.78
71043;BME280;58696;52.134;5.500;2023-01-29T15:40:52;102416.06;;;4.35;81.85
71043;BME280;58696;52.134;5.500;2023-01-29T15:45:49;102410.25;;;4.33;81.69
71043;BME280;58696;52.134;5.500;2023-01-29T15:48:19;102406.28;;;4.29;82.02